sensor_id;sensor_type;location;lat;lon;timestamp;P1;durP1;ratioP1;P2;durP2;ratioP2
78732;SDS011;68056;52.530;5.454;2023-06-22T00:01:48;9.23;;;6.38;;
78732;SDS011;68056;52.530;5.454;2023-06-22T00:04:14;10.15;;;7.00;;
78732;SDS011;68056;52.530;5.454;2023-06-22T00:06:40;12.10;;;8.13;;
78732;SDS011;68056;52.530;5.454;2023-06-22T00:09:06;8.85;;;6.95;;
78732;SDS011;68056;52.530;5.454;2023-06-22T00:11:32;10.70;;;7.97;;
78732;SDS011;68056;52.530;5.454;2023-06-22T00:14:01;10.25;;;7.28;;
78732;SDS011;68056;52.530;5.454;2023-06-22T00:16:27;9.90;;;7.93;;
78732;SDS011;68056;52.530;5.454;2023-06-22T00:18:53;12.48;;;7.65;;
78732;SDS011;68056;52.530;5.454;2023-06-22T00:21:18;12.10;;;8.52;;
78732;SDS011;68056;52.530;5.454;2023-06-22T00:23:45;15.05;;;8.02;;
78732;SDS011;68056;52.530;5.454;2023-06-22T00:26:12;12.35;;;7.70;;
78732;SDS011;68056;52.530;5.454;2023-06-22T00:28:38;10.27;;;7.30;;
78732;SDS011;68056;52.530;5.454;2023-06-22T00:31:04;10.23;;;7.72;;
78732;SDS011;68056;52.530;5.454;2023-06-22T00:33:30;12.00;;;8.15;;
78732;SDS011;68056;52.530;5.454;2023-06-22T00:35:56;9.90;;;7.28;;
78732;SDS011;68056;52.530;5.454;2023-06-22T00:38:22;11.30;;;8.02;;
78732;SDS011;68056;52.530;5.454;2023-06-22T00:40:48;11.27;;;8.25;;
78732;SDS011;68056;52.530;5.454;2023-06-22T00:43:13;12.93;;;8.15;;
78732;SDS011;68056;52.530;5.454;2023-06-22T00:45:39;14.88;;;8.90;;
78732;SDS011;68056;52.530;5.454;2023-06-22T00:48:05;13.20;;;8.88;;
78732;SDS011;68056;52.530;5.454;2023-06-22T00:50:31;11.40;;;7.97;;
78732;SDS011;68056;52.530;5.454;2023-06-22T00:53:04;12.77;;;8.88;;
78732;SDS011;68056;52.530;5.454;2023-06-22T00:55:38;12.40;;;8.68;;
78732;SDS011;68056;52.530;5.454;2023-06-22T00:58:11;14.20;;;9.32;;
78732;SDS011;68056;52.530;5.454;2023-06-22T01:00:39;10.63;;;7.95;;
78732;SDS011;68056;52.530;5.454;2023-06-22T01:03:05;15.55;;;10.32;;
78732;SDS011;68056;52.530;5.454;2023-06-22T01:05:33;15.80;;;10.35;;
78732;SDS011;68056;52.530;5.454;2023-06-22T01:10:57;13.65;;;8.90;;
78732;SDS011;68056;52.530;5.454;2023-06-22T01:13:37;13.75;;;9.27;;
78732;SDS011;68056;52.530;5.454;2023-06-22T01:16:20;13.15;;;9.23;;
78732;SDS011;68056;52.530;5.454;2023-06-22T01:18:55;14.75;;;9.75;;
78732;SDS011;68056;52.530;5.454;2023-06-22T01:21:26;12.65;;;8.50;;
78732;SDS011;68056;52.530;5.454;2023-06-22T01:29:08;13.60;;;10.15;;
78732;SDS011;68056;52.530;5.454;2023-06-22T01:31:37;15.75;;;10.35;;
78732;SDS011;68056;52.530;5.454;2023-06-22T01:34:06;14.63;;;9.95;;
78732;SDS011;68056;52.530;5.454;2023-06-22T01:36:33;16.13;;;9.68;;
78732;SDS011;68056;52.530;5.454;2023-06-22T01:39:00;15.35;;;9.73;;
78732;SDS011;68056;52.530;5.454;2023-06-22T01:41:28;13.52;;;9.43;;
78732;SDS011;68056;52.530;5.454;2023-06-22T01:43:56;14.20;;;9.98;;
78732;SDS011;68056;52.530;5.454;2023-06-22T01:46:22;13.20;;;9.77;;
78732;SDS011;68056;52.530;5.454;2023-06-22T01:48:48;13.50;;;9.65;;
78732;SDS011;68056;52.530;5.454;2023-06-22T01:51:15;15.32;;;9.73;;
78732;SDS011;68056;52.530;5.454;2023-06-22T01:53:41;15.02;;;9.40;;
78732;SDS011;68056;52.530;5.454;2023-06-22T01:56:07;17.45;;;11.68;;
78732;SDS011;68056;52.530;5.454;2023-06-22T01:58:33;15.93;;;10.80;;
78732;SDS011;68056;52.530;5.454;2023-06-22T02:01:11;16.98;;;11.80;;
78732;SDS011;68056;52.530;5.454;2023-06-22T02:03:43;14.88;;;11.35;;
78732;SDS011;68056;52.530;5.454;2023-06-22T02:06:35;15.05;;;10.43;;
78732;SDS011;68056;52.530;5.454;2023-06-22T02:09:02;17.35;;;11.07;;
78732;SDS011;68056;52.530;5.454;2023-06-22T02:11:33;14.60;;;10.75;;
78732;SDS011;68056;52.530;5.454;2023-06-22T02:14:01;12.88;;;9.82;;
78732;SDS011;68056;52.530;5.454;2023-06-22T02:16:27;15.60;;;10.57;;
78732;SDS011;68056;52.530;5.454;2023-06-22T02:18:56;17.02;;;11.63;;
78732;SDS011;68056;52.530;5.454;2023-06-22T02:21:26;15.43;;;10.70;;
78732;SDS011;68056;52.530;5.454;2023-06-22T02:23:52;15.98;;;11.55;;
78732;SDS011;68056;52.530;5.454;2023-06-22T02:26:18;20.00;;;12.75;;
78732;SDS011;68056;52.530;5.454;2023-06-22T02:28:43;18.45;;;12.55;;
78732;SDS011;68056;52.530;5.454;2023-06-22T02:31:09;19.98;;;13.02;;
78732;SDS011;68056;52.530;5.454;2023-06-22T02:33:36;14.88;;;11.20;;
78732;SDS011;68056;52.530;5.454;2023-06-22T02:36:01;17.20;;;12.90;;
78732;SDS011;68056;52.530;5.454;2023-06-22T02:38:30;14.70;;;9.93;;
78732;SDS011;68056;52.530;5.454;2023-06-22T02:40:59;17.40;;;11.98;;
78732;SDS011;68056;52.530;5.454;2023-06-22T02:43:25;18.23;;;12.25;;
78732;SDS011;68056;52.530;5.454;2023-06-22T02:45:51;17.65;;;11.52;;
78732;SDS011;68056;52.530;5.454;2023-06-22T02:48:16;18.15;;;13.32;;
78732;SDS011;68056;52.530;5.454;2023-06-22T02:50:42;16.35;;;12.15;;
78732;SDS011;68056;52.530;5.454;2023-06-22T02:53:07;15.45;;;11.30;;
78732;SDS011;68056;52.530;5.454;2023-06-22T02:55:33;16.23;;;10.68;;
78732;SDS011;68056;52.530;5.454;2023-06-22T02:58:02;16.40;;;11.98;;
78732;SDS011;68056;52.530;5.454;2023-06-22T03:00:32;18.88;;;11.88;;
78732;SDS011;68056;52.530;5.454;2023-06-22T03:03:00;14.00;;;11.35;;
78732;SDS011;68056;52.530;5.454;2023-06-22T03:05:26;14.52;;;11.43;;
78732;SDS011;68056;52.530;5.454;2023-06-22T03:08:01;18.13;;;12.55;;
78732;SDS011;68056;52.530;5.454;2023-06-22T03:10:26;15.90;;;11.35;;
78732;SDS011;68056;52.530;5.454;2023-06-22T03:12:52;17.27;;;11.63;;
78732;SDS011;68056;52.530;5.454;2023-06-22T03:15:18;17.67;;;12.93;;
78732;SDS011;68056;52.530;5.454;2023-06-22T03:17:46;19.05;;;12.02;;
78732;SDS011;68056;52.530;5.454;2023-06-22T03:20:12;19.17;;;12.70;;
78732;SDS011;68056;52.530;5.454;2023-06-22T03:22:38;17.50;;;12.82;;
78732;SDS011;68056;52.530;5.454;2023-06-22T03:25:06;18.02;;;12.63;;
78732;SDS011;68056;52.530;5.454;2023-06-22T03:27:40;18.00;;;13.05;;
78732;SDS011;68056;52.530;5.454;2023-06-22T03:30:08;16.27;;;11.40;;
78732;SDS011;68056;52.530;5.454;2023-06-22T03:32:35;18.70;;;13.15;;
78732;SDS011;68056;52.530;5.454;2023-06-22T03:35:01;16.48;;;12.98;;
78732;SDS011;68056;52.530;5.454;2023-06-22T03:37:27;17.92;;;12.38;;
78732;SDS011;68056;52.530;5.454;2023-06-22T03:39:54;17.73;;;12.75;;
78732;SDS011;68056;52.530;5.454;2023-06-22T03:42:28;20.15;;;12.98;;
78732;SDS011;68056;52.530;5.454;2023-06-22T03:44:59;17.35;;;12.25;;
78732;SDS011;68056;52.530;5.454;2023-06-22T03:47:26;17.85;;;13.05;;
78732;SDS011;68056;52.530;5.454;2023-06-22T03:49:51;19.80;;;12.10;;
78732;SDS011;68056;52.530;5.454;2023-06-22T03:52:20;19.98;;;13.02;;
78732;SDS011;68056;52.530;5.454;2023-06-22T03:54:47;18.95;;;13.20;;
78732;SDS011;68056;52.530;5.454;2023-06-22T03:57:13;17.73;;;11.63;;
78732;SDS011;68056;52.530;5.454;2023-06-22T03:59:39;19.65;;;13.93;;
78732;SDS011;68056;52.530;5.454;2023-06-22T04:02:04;17.52;;;12.55;;
78732;SDS011;68056;52.530;5.454;2023-06-22T04:04:30;22.17;;;13.65;;
78732;SDS011;68056;52.530;5.454;2023-06-22T04:06:56;13.77;;;12.02;;
78732;SDS011;68056;52.530;5.454;2023-06-22T04:09:22;17.20;;;12.68;;
78732;SDS011;68056;52.530;5.454;2023-06-22T04:11:49;17.88;;;12.43;;
78732;SDS011;68056;52.530;5.454;2023-06-22T04:14:14;20.15;;;14.02;;
78732;SDS011;68056;52.530;5.454;2023-06-22T04:16:40;16.27;;;13.13;;
78732;SDS011;68056;52.530;5.454;2023-06-22T04:19:06;20.45;;;14.18;;
78732;SDS011;68056;52.530;5.454;2023-06-22T04:21:32;20.77;;;13.80;;
78732;SDS011;68056;52.530;5.454;2023-06-22T04:23:58;17.38;;;12.77;;
78732;SDS011;68056;52.530;5.454;2023-06-22T04:26:23;17.95;;;12.98;;
78732;SDS011;68056;52.530;5.454;2023-06-22T04:28:49;17.77;;;12.20;;
78732;SDS011;68056;52.530;5.454;2023-06-22T04:31:16;22.48;;;14.98;;
78732;SDS011;68056;52.530;5.454;2023-06-22T04:36:09;19.63;;;13.18;;
78732;SDS011;68056;52.530;5.454;2023-06-22T04:38:38;19.55;;;13.15;;
78732;SDS011;68056;52.530;5.454;2023-06-22T04:41:04;18.23;;;12.50;;
78732;SDS011;68056;52.530;5.454;2023-06-22T04:43:30;22.50;;;14.35;;
78732;SDS011;68056;52.530;5.454;2023-06-22T04:45:58;21.08;;;14.32;;
78732;SDS011;68056;52.530;5.454;2023-06-22T04:48:29;20.02;;;13.75;;
78732;SDS011;68056;52.530;5.454;2023-06-22T04:50:57;20.92;;;15.35;;
78732;SDS011;68056;52.530;5.454;2023-06-22T04:53:29;24.77;;;16.00;;
78732;SDS011;68056;52.530;5.454;2023-06-22T04:55:55;24.50;;;17.42;;
78732;SDS011;68056;52.530;5.454;2023-06-22T04:58:21;23.55;;;15.82;;
78732;SDS011;68056;52.530;5.454;2023-06-22T05:00:47;20.10;;;13.98;;
78732;SDS011;68056;52.530;5.454;2023-06-22T05:03:13;24.58;;;15.88;;
78732;SDS011;68056;52.530;5.454;2023-06-22T05:05:39;27.27;;;16.88;;
78732;SDS011;68056;52.530;5.454;2023-06-22T05:08:05;19.98;;;16.08;;
78732;SDS011;68056;52.530;5.454;2023-06-22T05:10:32;23.42;;;18.70;;
78732;SDS011;68056;52.530;5.454;2023-06-22T05:13:10;23.30;;;17.73;;
78732;SDS011;68056;52.530;5.454;2023-06-22T05:15:39;30.92;;;18.23;;
78732;SDS011;68056;52.530;5.454;2023-06-22T05:18:05;25.33;;;17.83;;
78732;SDS011;68056;52.530;5.454;2023-06-22T05:20:31;32.38;;;19.00;;
78732;SDS011;68056;52.530;5.454;2023-06-22T05:22:59;28.45;;;20.90;;
78732;SDS011;68056;52.530;5.454;2023-06-22T05:25:25;25.70;;;19.10;;
78732;SDS011;68056;52.530;5.454;2023-06-22T05:27:55;24.70;;;19.42;;
78732;SDS011;68056;52.530;5.454;2023-06-22T05:30:23;28.20;;;20.67;;
78732;SDS011;68056;52.530;5.454;2023-06-22T05:32:48;32.70;;;21.35;;
78732;SDS011;68056;52.530;5.454;2023-06-22T05:35:14;27.27;;;18.85;;
78732;SDS011;68056;52.530;5.454;2023-06-22T05:37:40;31.88;;;21.40;;
78732;SDS011;68056;52.530;5.454;2023-06-22T05:40:24;28.33;;;20.38;;
78732;SDS011;68056;52.530;5.454;2023-06-22T05:42:50;30.10;;;20.52;;
78732;SDS011;68056;52.530;5.454;2023-06-22T05:45:15;31.98;;;21.92;;
78732;SDS011;68056;52.530;5.454;2023-06-22T05:47:41;32.33;;;22.30;;
78732;SDS011;68056;52.530;5.454;2023-06-22T05:50:08;25.95;;;18.48;;
78732;SDS011;68056;52.530;5.454;2023-06-22T05:52:34;26.52;;;19.90;;
78732;SDS011;68056;52.530;5.454;2023-06-22T05:55:00;27.92;;;19.73;;
78732;SDS011;68056;52.530;5.454;2023-06-22T05:59:52;27.40;;;22.13;;
78732;SDS011;68056;52.530;5.454;2023-06-22T06:02:19;29.70;;;20.33;;
78732;SDS011;68056;52.530;5.454;2023-06-22T06:04:56;26.85;;;19.05;;
78732;SDS011;68056;52.530;5.454;2023-06-22T06:07:22;25.23;;;18.63;;
78732;SDS011;68056;52.530;5.454;2023-06-22T06:09:55;28.27;;;21.08;;
78732;SDS011;68056;52.530;5.454;2023-06-22T06:12:29;24.95;;;18.00;;
78732;SDS011;68056;52.530;5.454;2023-06-22T06:15:05;21.85;;;17.25;;
78732;SDS011;68056;52.530;5.454;2023-06-22T06:17:31;23.77;;;18.27;;
78732;SDS011;68056;52.530;5.454;2023-06-22T06:19:58;23.77;;;17.15;;
78732;SDS011;68056;52.530;5.454;2023-06-22T06:22:28;24.02;;;17.35;;
78732;SDS011;68056;52.530;5.454;2023-06-22T06:25:02;22.60;;;16.63;;
78732;SDS011;68056;52.530;5.454;2023-06-22T06:27:28;20.83;;;16.08;;
78732;SDS011;68056;52.530;5.454;2023-06-22T06:29:54;18.73;;;14.65;;
78732;SDS011;68056;52.530;5.454;2023-06-22T06:32:19;18.42;;;14.93;;
78732;SDS011;68056;52.530;5.454;2023-06-22T06:34:45;17.67;;;13.88;;
78732;SDS011;68056;52.530;5.454;2023-06-22T06:37:11;19.85;;;15.95;;
78732;SDS011;68056;52.530;5.454;2023-06-22T06:39:36;17.35;;;14.05;;
78732;SDS011;68056;52.530;5.454;2023-06-22T06:42:02;20.95;;;14.68;;
78732;SDS011;68056;52.530;5.454;2023-06-22T06:44:29;20.90;;;14.82;;
78732;SDS011;68056;52.530;5.454;2023-06-22T06:46:54;20.42;;;15.10;;
78732;SDS011;68056;52.530;5.454;2023-06-22T06:49:20;15.98;;;13.38;;
78732;SDS011;68056;52.530;5.454;2023-06-22T06:51:51;18.85;;;14.80;;
78732;SDS011;68056;52.530;5.454;2023-06-22T06:54:23;20.48;;;15.88;;
78732;SDS011;68056;52.530;5.454;2023-06-22T06:56:49;18.73;;;14.10;;
78732;SDS011;68056;52.530;5.454;2023-06-22T06:59:15;20.38;;;15.05;;
78732;SDS011;68056;52.530;5.454;2023-06-22T07:01:41;17.67;;;13.68;;
78732;SDS011;68056;52.530;5.454;2023-06-22T07:04:09;20.33;;;15.15;;
78732;SDS011;68056;52.530;5.454;2023-06-22T07:06:37;18.35;;;13.43;;
78732;SDS011;68056;52.530;5.454;2023-06-22T07:09:04;20.67;;;15.25;;
78732;SDS011;68056;52.530;5.454;2023-06-22T07:11:30;20.38;;;15.10;;
78732;SDS011;68056;52.530;5.454;2023-06-22T07:13:55;23.30;;;16.50;;
78732;SDS011;68056;52.530;5.454;2023-06-22T07:16:21;21.42;;;15.32;;
78732;SDS011;68056;52.530;5.454;2023-06-22T07:18:48;17.17;;;13.90;;
78732;SDS011;68056;52.530;5.454;2023-06-22T07:21:22;19.42;;;15.60;;
78732;SDS011;68056;52.530;5.454;2023-06-22T07:23:54;21.85;;;15.10;;
78732;SDS011;68056;52.530;5.454;2023-06-22T07:26:20;18.05;;;14.63;;
78732;SDS011;68056;52.530;5.454;2023-06-22T07:28:45;22.48;;;15.38;;
78732;SDS011;68056;52.530;5.454;2023-06-22T07:31:14;20.95;;;15.77;;
78732;SDS011;68056;52.530;5.454;2023-06-22T07:33:48;19.50;;;15.93;;
78732;SDS011;68056;52.530;5.454;2023-06-22T07:36:23;19.38;;;14.23;;
78732;SDS011;68056;52.530;5.454;2023-06-22T07:38:49;21.08;;;14.45;;
78732;SDS011;68056;52.530;5.454;2023-06-22T07:41:14;18.23;;;13.55;;
78732;SDS011;68056;52.530;5.454;2023-06-22T07:43:41;16.30;;;13.98;;
78732;SDS011;68056;52.530;5.454;2023-06-22T07:46:06;18.40;;;13.73;;
78732;SDS011;68056;52.530;5.454;2023-06-22T07:48:32;17.70;;;13.40;;
78732;SDS011;68056;52.530;5.454;2023-06-22T07:50:57;17.60;;;14.55;;
78732;SDS011;68056;52.530;5.454;2023-06-22T07:53:23;14.90;;;12.55;;
78732;SDS011;68056;52.530;5.454;2023-06-22T07:55:49;19.30;;;14.45;;
78732;SDS011;68056;52.530;5.454;2023-06-22T07:58:15;13.38;;;11.88;;
78732;SDS011;68056;52.530;5.454;2023-06-22T08:00:41;13.82;;;12.02;;
78732;SDS011;68056;52.530;5.454;2023-06-22T08:03:06;15.50;;;11.13;;
78732;SDS011;68056;52.530;5.454;2023-06-22T08:05:32;12.43;;;9.07;;
78732;SDS011;68056;52.530;5.454;2023-06-22T08:07:58;12.18;;;10.23;;
78732;SDS011;68056;52.530;5.454;2023-06-22T08:10:23;11.85;;;9.45;;
78732;SDS011;68056;52.530;5.454;2023-06-22T08:12:49;11.73;;;8.45;;
78732;SDS011;68056;52.530;5.454;2023-06-22T08:15:16;11.98;;;10.18;;
78732;SDS011;68056;52.530;5.454;2023-06-22T08:17:43;13.88;;;10.13;;
78732;SDS011;68056;52.530;5.454;2023-06-22T08:20:09;9.93;;;8.20;;
78732;SDS011;68056;52.530;5.454;2023-06-22T08:22:38;11.15;;;8.13;;
78732;SDS011;68056;52.530;5.454;2023-06-22T08:27:31;11.05;;;8.18;;
78732;SDS011;68056;52.530;5.454;2023-06-22T08:29:57;12.88;;;8.80;;
78732;SDS011;68056;52.530;5.454;2023-06-22T08:32:24;11.23;;;8.82;;
78732;SDS011;68056;52.530;5.454;2023-06-22T08:34:52;8.90;;;7.78;;
78732;SDS011;68056;52.530;5.454;2023-06-22T08:37:19;10.18;;;7.60;;
78732;SDS011;68056;52.530;5.454;2023-06-22T08:39:44;10.25;;;7.78;;
78732;SDS011;68056;52.530;5.454;2023-06-22T08:42:11;9.80;;;8.25;;
78732;SDS011;68056;52.530;5.454;2023-06-22T08:44:37;11.10;;;8.45;;
78732;SDS011;68056;52.530;5.454;2023-06-22T08:47:02;10.77;;;7.55;;
78732;SDS011;68056;52.530;5.454;2023-06-22T08:49:28;9.82;;;8.20;;
78732;SDS011;68056;52.530;5.454;2023-06-22T08:51:54;9.57;;;7.40;;
78732;SDS011;68056;52.530;5.454;2023-06-22T08:54:22;9.63;;;7.20;;
78732;SDS011;68056;52.530;5.454;2023-06-22T08:56:48;8.88;;;6.97;;
78732;SDS011;68056;52.530;5.454;2023-06-22T08:59:13;12.48;;;8.63;;
78732;SDS011;68056;52.530;5.454;2023-06-22T09:01:39;11.15;;;8.85;;
78732;SDS011;68056;52.530;5.454;2023-06-22T09:04:04;9.10;;;8.15;;
78732;SDS011;68056;52.530;5.454;2023-06-22T09:06:32;9.20;;;7.70;;
78732;SDS011;68056;52.530;5.454;2023-06-22T09:08:57;9.63;;;7.80;;
78732;SDS011;68056;52.530;5.454;2023-06-22T09:11:26;10.80;;;8.57;;
78732;SDS011;68056;52.530;5.454;2023-06-22T09:13:51;12.30;;;9.00;;
78732;SDS011;68056;52.530;5.454;2023-06-22T09:18:47;10.43;;;7.80;;
78732;SDS011;68056;52.530;5.454;2023-06-22T09:21:13;8.85;;;7.60;;
78732;SDS011;68056;52.530;5.454;2023-06-22T09:23:38;10.50;;;9.40;;
78732;SDS011;68056;52.530;5.454;2023-06-22T09:26:04;11.40;;;8.88;;
78732;SDS011;68056;52.530;5.454;2023-06-22T09:28:30;11.07;;;8.43;;
78732;SDS011;68056;52.530;5.454;2023-06-22T09:30:56;10.40;;;8.23;;
78732;SDS011;68056;52.530;5.454;2023-06-22T09:33:24;11.40;;;9.00;;
78732;SDS011;68056;52.530;5.454;2023-06-22T09:35:50;11.27;;;7.90;;
78732;SDS011;68056;52.530;5.454;2023-06-22T09:38:16;9.57;;;7.75;;
78732;SDS011;68056;52.530;5.454;2023-06-22T09:40:42;10.18;;;8.57;;
78732;SDS011;68056;52.530;5.454;2023-06-22T09:43:07;9.52;;;7.53;;
78732;SDS011;68056;52.530;5.454;2023-06-22T09:45:33;9.48;;;7.88;;
78732;SDS011;68056;52.530;5.454;2023-06-22T09:47:59;8.18;;;7.38;;
78732;SDS011;68056;52.530;5.454;2023-06-22T09:50:24;9.27;;;7.63;;
78732;SDS011;68056;52.530;5.454;2023-06-22T09:52:50;8.98;;;7.15;;
78732;SDS011;68056;52.530;5.454;2023-06-22T09:55:19;10.40;;;7.97;;
78732;SDS011;68056;52.530;5.454;2023-06-22T09:57:45;10.45;;;8.13;;
78732;SDS011;68056;52.530;5.454;2023-06-22T10:00:11;8.25;;;7.45;;
78732;SDS011;68056;52.530;5.454;2023-06-22T10:02:39;7.68;;;6.90;;
78732;SDS011;68056;52.530;5.454;2023-06-22T10:05:05;8.90;;;7.40;;
78732;SDS011;68056;52.530;5.454;2023-06-22T10:07:32;7.30;;;6.57;;
78732;SDS011;68056;52.530;5.454;2023-06-22T10:09:58;8.55;;;6.80;;
78732;SDS011;68056;52.530;5.454;2023-06-22T10:12:23;8.45;;;6.15;;
78732;SDS011;68056;52.530;5.454;2023-06-22T10:17:16;8.77;;;6.78;;
78732;SDS011;68056;52.530;5.454;2023-06-22T10:19:41;8.13;;;6.70;;
78732;SDS011;68056;52.530;5.454;2023-06-22T10:22:07;7.65;;;6.55;;
78732;SDS011;68056;52.530;5.454;2023-06-22T10:24:33;9.73;;;7.63;;
78732;SDS011;68056;52.530;5.454;2023-06-22T10:26:58;7.70;;;6.80;;
78732;SDS011;68056;52.530;5.454;2023-06-22T10:29:24;7.70;;;6.72;;
78732;SDS011;68056;52.530;5.454;2023-06-22T10:31:50;7.72;;;6.70;;
78732;SDS011;68056;52.530;5.454;2023-06-22T10:34:15;9.05;;;8.15;;
78732;SDS011;68056;52.530;5.454;2023-06-22T10:36:41;8.20;;;6.18;;
78732;SDS011;68056;52.530;5.454;2023-06-22T10:39:07;10.25;;;7.43;;
78732;SDS011;68056;52.530;5.454;2023-06-22T10:41:33;9.40;;;6.70;;
78732;SDS011;68056;52.530;5.454;2023-06-22T10:43:58;8.73;;;6.95;;
78732;SDS011;68056;52.530;5.454;2023-06-22T10:46:25;8.77;;;7.00;;
78732;SDS011;68056;52.530;5.454;2023-06-22T10:48:52;7.00;;;6.25;;
78732;SDS011;68056;52.530;5.454;2023-06-22T10:51:20;8.73;;;6.97;;
78732;SDS011;68056;52.530;5.454;2023-06-22T10:53:45;8.43;;;6.97;;
78732;SDS011;68056;52.530;5.454;2023-06-22T10:56:11;7.30;;;6.13;;
78732;SDS011;68056;52.530;5.454;2023-06-22T10:58:37;8.50;;;6.57;;
78732;SDS011;68056;52.530;5.454;2023-06-22T11:01:02;6.53;;;5.90;;
78732;SDS011;68056;52.530;5.454;2023-06-22T11:03:28;6.38;;;5.68;;
78732;SDS011;68056;52.530;5.454;2023-06-22T11:05:54;7.28;;;5.95;;
78732;SDS011;68056;52.530;5.454;2023-06-22T11:08:19;6.50;;;5.82;;
78732;SDS011;68056;52.530;5.454;2023-06-22T11:10:45;5.95;;;5.18;;
78732;SDS011;68056;52.530;5.454;2023-06-22T11:13:11;7.30;;;6.05;;
78732;SDS011;68056;52.530;5.454;2023-06-22T11:15:38;5.88;;;5.28;;
78732;SDS011;68056;52.530;5.454;2023-06-22T11:18:05;6.55;;;5.60;;
78732;SDS011;68056;52.530;5.454;2023-06-22T11:20:32;7.25;;;5.10;;
78732;SDS011;68056;52.530;5.454;2023-06-22T11:23:03;6.05;;;5.00;;
78732;SDS011;68056;52.530;5.454;2023-06-22T11:25:30;6.22;;;4.65;;
78732;SDS011;68056;52.530;5.454;2023-06-22T11:27:55;5.30;;;4.15;;
78732;SDS011;68056;52.530;5.454;2023-06-22T11:30:21;8.15;;;5.03;;
78732;SDS011;68056;52.530;5.454;2023-06-22T11:32:48;6.00;;;4.53;;
78732;SDS011;68056;52.530;5.454;2023-06-22T11:35:13;5.03;;;4.53;;
78732;SDS011;68056;52.530;5.454;2023-06-22T11:37:39;5.65;;;4.95;;
78732;SDS011;68056;52.530;5.454;2023-06-22T11:40:05;5.18;;;4.50;;
78732;SDS011;68056;52.530;5.454;2023-06-22T11:42:34;7.28;;;5.13;;
78732;SDS011;68056;52.530;5.454;2023-06-22T11:45:00;7.63;;;4.93;;
78732;SDS011;68056;52.530;5.454;2023-06-22T11:47:25;6.93;;;4.40;;
78732;SDS011;68056;52.530;5.454;2023-06-22T11:49:51;6.95;;;4.63;;
78732;SDS011;68056;52.530;5.454;2023-06-22T11:52:16;5.07;;;4.20;;
78732;SDS011;68056;52.530;5.454;2023-06-22T11:54:45;5.97;;;4.85;;
78732;SDS011;68056;52.530;5.454;2023-06-22T11:57:10;5.57;;;4.63;;
78732;SDS011;68056;52.530;5.454;2023-06-22T11:59:36;4.93;;;4.43;;
78732;SDS011;68056;52.530;5.454;2023-06-22T12:02:02;7.28;;;4.85;;
78732;SDS011;68056;52.530;5.454;2023-06-22T12:06:54;4.72;;;4.30;;
78732;SDS011;68056;52.530;5.454;2023-06-22T12:09:19;6.57;;;4.57;;
78732;SDS011;68056;52.530;5.454;2023-06-22T12:11:45;6.07;;;4.13;;
78732;SDS011;68056;52.530;5.454;2023-06-22T12:14:11;5.13;;;4.15;;
78732;SDS011;68056;52.530;5.454;2023-06-22T12:16:36;5.05;;;4.22;;
78732;SDS011;68056;52.530;5.454;2023-06-22T12:19:02;5.78;;;3.60;;
78732;SDS011;68056;52.530;5.454;2023-06-22T12:21:28;4.90;;;3.83;;
78732;SDS011;68056;52.530;5.454;2023-06-22T12:23:54;5.00;;;3.70;;
78732;SDS011;68056;52.530;5.454;2023-06-22T12:26:19;3.88;;;3.33;;
78732;SDS011;68056;52.530;5.454;2023-06-22T12:28:45;4.00;;;3.60;;
78732;SDS011;68056;52.530;5.454;2023-06-22T12:31:10;3.33;;;2.80;;
78732;SDS011;68056;52.530;5.454;2023-06-22T12:33:36;4.63;;;3.33;;
78732;SDS011;68056;52.530;5.454;2023-06-22T12:36:01;3.42;;;2.90;;
78732;SDS011;68056;52.530;5.454;2023-06-22T12:38:28;4.10;;;3.58;;
78732;SDS011;68056;52.530;5.454;2023-06-22T12:40:54;5.13;;;3.58;;
78732;SDS011;68056;52.530;5.454;2023-06-22T12:43:19;4.63;;;2.85;;
78732;SDS011;68056;52.530;5.454;2023-06-22T12:45:45;4.28;;;3.03;;
78732;SDS011;68056;52.530;5.454;2023-06-22T12:48:10;4.25;;;3.13;;
78732;SDS011;68056;52.530;5.454;2023-06-22T12:50:37;4.93;;;3.80;;
78732;SDS011;68056;52.530;5.454;2023-06-22T12:53:03;4.22;;;3.22;;
78732;SDS011;68056;52.530;5.454;2023-06-22T12:55:29;4.32;;;3.42;;
78732;SDS011;68056;52.530;5.454;2023-06-22T12:57:55;5.05;;;3.63;;
78732;SDS011;68056;52.530;5.454;2023-06-22T13:00:20;4.55;;;3.63;;
78732;SDS011;68056;52.530;5.454;2023-06-22T13:02:46;5.47;;;3.58;;
78732;SDS011;68056;52.530;5.454;2023-06-22T13:05:12;4.00;;;3.50;;
78732;SDS011;68056;52.530;5.454;2023-06-22T13:07:37;4.07;;;3.60;;
78732;SDS011;68056;52.530;5.454;2023-06-22T13:10:03;4.32;;;3.72;;
78732;SDS011;68056;52.530;5.454;2023-06-22T13:12:29;6.93;;;4.45;;
78732;SDS011;68056;52.530;5.454;2023-06-22T13:14:55;4.60;;;4.05;;
78732;SDS011;68056;52.530;5.454;2023-06-22T13:17:20;5.50;;;4.07;;
78732;SDS011;68056;52.530;5.454;2023-06-22T13:19:46;4.57;;;3.83;;
78732;SDS011;68056;52.530;5.454;2023-06-22T13:22:30;3.60;;;3.30;;
78732;SDS011;68056;52.530;5.454;2023-06-22T13:24:57;4.40;;;3.97;;
78732;SDS011;68056;52.530;5.454;2023-06-22T13:27:24;4.82;;;4.00;;
78732;SDS011;68056;52.530;5.454;2023-06-22T13:29:50;4.53;;;3.67;;
78732;SDS011;68056;52.530;5.454;2023-06-22T13:32:15;4.20;;;3.50;;
78732;SDS011;68056;52.530;5.454;2023-06-22T13:34:41;5.60;;;4.05;;
78732;SDS011;68056;52.530;5.454;2023-06-22T13:37:07;4.45;;;3.85;;
78732;SDS011;68056;52.530;5.454;2023-06-22T13:39:33;3.83;;;3.40;;
78732;SDS011;68056;52.530;5.454;2023-06-22T13:41:58;3.83;;;3.03;;
78732;SDS011;68056;52.530;5.454;2023-06-22T13:44:24;4.95;;;4.38;;
78732;SDS011;68056;52.530;5.454;2023-06-22T13:46:53;5.05;;;2.92;;
78732;SDS011;68056;52.530;5.454;2023-06-22T13:49:19;5.47;;;4.10;;
78732;SDS011;68056;52.530;5.454;2023-06-22T13:51:46;6.05;;;4.03;;
78732;SDS011;68056;52.530;5.454;2023-06-22T13:54:13;4.53;;;4.13;;
78732;SDS011;68056;52.530;5.454;2023-06-22T13:56:40;5.65;;;4.00;;
78732;SDS011;68056;52.530;5.454;2023-06-22T13:59:07;4.88;;;4.00;;
78732;SDS011;68056;52.530;5.454;2023-06-22T14:01:34;7.22;;;4.93;;
78732;SDS011;68056;52.530;5.454;2023-06-22T14:04:00;5.78;;;4.32;;
78732;SDS011;68056;52.530;5.454;2023-06-22T14:06:29;5.10;;;4.35;;
78732;SDS011;68056;52.530;5.454;2023-06-22T14:08:54;5.03;;;4.53;;
78732;SDS011;68056;52.530;5.454;2023-06-22T14:11:21;5.47;;;4.93;;
78732;SDS011;68056;52.530;5.454;2023-06-22T14:13:46;4.05;;;3.63;;
78732;SDS011;68056;52.530;5.454;2023-06-22T14:16:12;4.88;;;4.05;;
78732;SDS011;68056;52.530;5.454;2023-06-22T14:18:38;6.18;;;4.43;;
78732;SDS011;68056;52.530;5.454;2023-06-22T14:21:03;4.95;;;3.90;;
78732;SDS011;68056;52.530;5.454;2023-06-22T14:23:29;4.50;;;4.00;;
78732;SDS011;68056;52.530;5.454;2023-06-22T14:25:54;4.63;;;3.08;;
78732;SDS011;68056;52.530;5.454;2023-06-22T14:28:20;6.63;;;4.55;;
78732;SDS011;68056;52.530;5.454;2023-06-22T14:30:46;5.45;;;4.95;;
78732;SDS011;68056;52.530;5.454;2023-06-22T14:33:12;6.03;;;4.53;;
78732;SDS011;68056;52.530;5.454;2023-06-22T14:35:37;4.53;;;3.75;;
78732;SDS011;68056;52.530;5.454;2023-06-22T14:38:03;7.47;;;4.47;;
78732;SDS011;68056;52.530;5.454;2023-06-22T14:40:30;6.30;;;4.93;;
78732;SDS011;68056;52.530;5.454;2023-06-22T14:42:56;6.43;;;4.45;;
78732;SDS011;68056;52.530;5.454;2023-06-22T14:45:22;4.88;;;4.28;;
78732;SDS011;68056;52.530;5.454;2023-06-22T14:47:48;5.72;;;4.20;;
78732;SDS011;68056;52.530;5.454;2023-06-22T14:50:14;5.97;;;4.22;;
78732;SDS011;68056;52.530;5.454;2023-06-22T14:52:39;5.43;;;4.65;;
78732;SDS011;68056;52.530;5.454;2023-06-22T14:55:05;4.68;;;4.00;;